createdAt,value
2022-10-22T00:01:58.042Z,100.00
2022-10-22T00:06:59.661Z,100.00
2022-10-22T00:12:01.303Z,100.00
2022-10-22T00:17:04.243Z,100.00
2022-10-22T00:22:10.108Z,100.00
2022-10-22T00:27:12.774Z,100.00
2022-10-22T00:32:15.243Z,100.00
2022-10-22T00:37:16.926Z,100.00
2022-10-22T00:42:23.939Z,100.00
2022-10-22T00:47:27.087Z,100.00
2022-10-22T00:52:28.958Z,100.00
2022-10-22T00:57:30.893Z,100.00
2022-10-22T01:02:32.568Z,100.00
2022-10-22T01:07:40.858Z,100.00
2022-10-22T01:13:09.551Z,100.00
2022-10-22T01:18:26.336Z,100.00
2022-10-22T01:23:53.113Z,100.00
2022-10-22T01:29:28.622Z,100.00
2022-10-22T01:34:31.848Z,100.00
2022-10-22T01:39:36.780Z,100.00
2022-10-22T01:44:38.520Z,100.00
2022-10-22T01:50:25.514Z,100.00
2022-10-22T01:55:50.036Z,100.00
2022-10-22T02:01:03.164Z,100.00
2022-10-22T02:06:15.016Z,100.00
2022-10-22T02:11:17.027Z,100.00
2022-10-22T02:16:24.205Z,100.00
2022-10-22T02:21:27.105Z,100.00
2022-10-22T02:26:35.396Z,100.00
2022-10-22T02:31:40.611Z,100.00
2022-10-22T02:36:46.774Z,100.00
2022-10-22T02:41:51.212Z,100.00
2022-10-22T02:46:52.795Z,100.00
2022-10-22T02:51:54.358Z,100.00
2022-10-22T02:56:55.879Z,100.00
2022-10-22T03:01:57.499Z,100.00
2022-10-22T03:06:59.135Z,100.00
2022-10-22T03:12:00.750Z,100.00
2022-10-22T03:17:02.398Z,100.00
2022-10-22T03:22:09.894Z,100.00
2022-10-22T03:27:15.016Z,100.00
2022-10-22T03:32:16.775Z,100.00
2022-10-22T03:37:19.197Z,100.00
2022-10-22T03:42:21.858Z,100.00
2022-10-22T03:47:26.277Z,100.00
2022-10-22T03:52:28.025Z,100.00
2022-10-22T03:57:29.558Z,100.00
2022-10-22T04:02:31.118Z,100.00
2022-10-22T04:07:32.759Z,100.00
2022-10-22T04:12:34.298Z,100.00
2022-10-22T04:17:36.706Z,100.00
2022-10-22T04:22:38.329Z,100.00
2022-10-22T04:27:40.050Z,100.00
2022-10-22T04:32:41.908Z,100.00
2022-10-22T04:37:43.538Z,100.00
2022-10-22T04:42:45.126Z,100.00
2022-10-22T04:47:46.715Z,100.00
2022-10-22T04:52:48.344Z,100.00
2022-10-22T04:57:50.006Z,100.00
2022-10-22T05:02:51.735Z,100.00
2022-10-22T05:07:53.350Z,100.00
2022-10-22T05:12:54.998Z,100.00
2022-10-22T05:17:56.579Z,100.00
2022-10-22T05:22:58.092Z,100.00
2022-10-22T05:28:00.370Z,100.00
2022-10-22T05:33:02.094Z,100.00
2022-10-22T05:38:03.664Z,100.00
2022-10-22T05:43:05.294Z,100.00
2022-10-22T05:48:08.051Z,100.00
2022-10-22T05:53:10.173Z,100.00
2022-10-22T05:58:12.823Z,100.00
2022-10-22T06:03:14.379Z,100.00
2022-10-22T06:08:18.931Z,100.00
2022-10-22T06:13:20.918Z,100.00
2022-10-22T06:18:22.554Z,100.00
2022-10-22T06:23:24.101Z,100.00
2022-10-22T06:28:26.215Z,100.00
2022-10-22T06:33:29.276Z,100.00
2022-10-22T06:38:30.855Z,100.00
2022-10-22T06:43:32.535Z,100.00
2022-10-22T06:48:36.029Z,100.00
2022-10-22T06:53:40.093Z,100.00
2022-10-22T06:58:42.008Z,100.00
2022-10-22T07:03:43.819Z,100.00
2022-10-22T07:08:45.427Z,100.00
2022-10-22T07:13:47.789Z,100.00
2022-10-22T07:18:49.456Z,100.00
2022-10-22T07:23:51.098Z,100.00
2022-10-22T07:28:52.742Z,100.00
2022-10-22T07:33:54.387Z,100.00
2022-10-22T07:38:58.476Z,100.00
2022-10-22T07:44:00.149Z,100.00
2022-10-22T07:49:01.771Z,100.00
2022-10-22T07:54:04.226Z,100.00
2022-10-22T07:59:05.784Z,100.00
2022-10-22T08:04:10.997Z,100.00
2022-10-22T08:09:12.644Z,100.00
2022-10-22T08:14:14.381Z,100.00
2022-10-22T08:19:20.838Z,100.00
2022-10-22T08:24:22.457Z,100.00
2022-10-22T08:29:25.080Z,100.00
2022-10-22T08:34:26.665Z,100.00
2022-10-22T08:39:28.299Z,100.00
2022-10-22T08:45:03.947Z,100.00
2022-10-22T08:50:12.246Z,100.00
2022-10-22T08:55:15.582Z,100.00
2022-10-22T09:00:42.372Z,100.00
2022-10-22T09:05:52.918Z,100.00
2022-10-22T09:11:37.806Z,100.00
2022-10-22T09:17:24.644Z,100.00
2022-10-22T09:22:46.628Z,100.00
2022-10-22T09:27:50.124Z,100.00
2022-10-22T09:33:11.981Z,100.00
2022-10-22T09:38:16.272Z,100.00
2022-10-22T09:43:18.970Z,100.00
2022-10-22T09:48:28.405Z,100.00
2022-10-22T09:53:31.893Z,100.00
2022-10-22T09:58:44.000Z,100.00
2022-10-22T10:03:45.644Z,100.00
2022-10-22T10:08:48.484Z,100.00
2022-10-22T10:14:04.095Z,100.00
2022-10-22T10:19:25.803Z,100.00
2022-10-22T10:24:45.332Z,100.00
2022-10-22T10:30:03.079Z,100.00
2022-10-22T10:35:28.235Z,100.00
2022-10-22T10:40:43.691Z,91.92
2022-10-22T10:45:57.268Z,88.43
2022-10-22T10:51:19.340Z,88.10
2022-10-22T10:56:38.364Z,82.90
2022-10-22T11:02:14.175Z,81.23
2022-10-22T11:07:34.343Z,84.49
2022-10-22T11:12:42.478Z,86.69
2022-10-22T11:17:48.077Z,85.58
2022-10-22T11:23:20.861Z,88.43
2022-10-22T11:28:30.004Z,87.96
2022-10-22T11:34:33.604Z,87.52
2022-10-22T11:39:42.700Z,87.44
2022-10-22T11:45:05.094Z,90.88
2022-10-22T11:50:43.786Z,91.27
2022-10-22T11:55:51.792Z,86.89
2022-10-22T12:01:03.071Z,88.93
2022-10-22T12:06:15.639Z,88.26
2022-10-22T12:11:28.928Z,85.83
2022-10-22T12:16:54.667Z,88.24
2022-10-22T12:21:59.862Z,89.92
2022-10-22T12:27:01.450Z,89.14
2022-10-22T12:32:04.682Z,80.22
2022-10-22T12:37:06.260Z,79.43
2022-10-22T12:42:13.339Z,79.34
2022-10-22T12:47:18.821Z,79.41
2022-10-22T12:52:23.642Z,79.30
2022-10-22T12:57:25.565Z,76.75
2022-10-22T13:02:29.052Z,77.98
2022-10-22T13:07:39.403Z,75.09
2022-10-22T13:12:48.735Z,73.23
2022-10-22T13:17:50.388Z,74.10
2022-10-22T13:23:03.342Z,75.81
2022-10-22T13:28:21.780Z,76.72
2022-10-22T13:33:34.724Z,76.90
2022-10-22T13:38:36.626Z,76.45
2022-10-22T13:43:38.290Z,77.49
2022-10-22T13:48:40.136Z,77.28
2022-10-22T13:53:43.730Z,75.51
2022-10-22T13:58:47.033Z,71.49
2022-10-22T14:03:54.333Z,73.89
2022-10-22T14:08:59.358Z,75.03
2022-10-22T14:14:03.559Z,77.31
2022-10-22T14:19:07.818Z,77.81
2022-10-22T14:24:13.131Z,73.76
2022-10-22T14:29:15.186Z,75.06
2022-10-22T14:34:16.921Z,77.46
2022-10-22T14:39:18.654Z,79.81
2022-10-22T14:44:20.182Z,81.42
2022-10-22T14:49:21.908Z,81.83
2022-10-22T14:54:23.499Z,84.06
2022-10-22T14:59:25.138Z,83.12
2022-10-22T15:04:27.316Z,79.03
2022-10-22T15:09:29.140Z,80.23
2022-10-22T15:14:31.095Z,78.85
2022-10-22T15:19:32.737Z,79.84
2022-10-22T15:24:34.724Z,82.12
2022-10-22T15:29:36.503Z,83.47
2022-10-22T15:34:39.989Z,84.45
2022-10-22T15:39:42.476Z,86.36
2022-10-22T15:44:44.085Z,88.90
2022-10-22T15:49:45.867Z,91.40
2022-10-22T15:54:47.676Z,93.87
2022-10-22T15:59:50.150Z,96.24
2022-10-22T16:04:51.673Z,97.84
2022-10-22T16:09:58.168Z,100.00
2022-10-22T16:14:59.896Z,100.00
2022-10-22T16:20:01.623Z,100.00
2022-10-22T16:25:03.387Z,100.00
2022-10-22T16:30:05.474Z,100.00
2022-10-22T16:35:08.445Z,100.00
2022-10-22T16:40:11.112Z,100.00
2022-10-22T16:45:12.881Z,100.00
2022-10-22T16:50:14.494Z,100.00
2022-10-22T16:55:16.209Z,100.00
2022-10-22T17:00:18.193Z,100.00
2022-10-22T17:05:20.703Z,100.00
2022-10-22T17:15:24.843Z,100.00
2022-10-22T17:20:26.895Z,100.00
2022-10-22T17:25:44.956Z,100.00
2022-10-22T17:30:46.522Z,100.00
2022-10-22T17:35:49.377Z,100.00
2022-10-22T17:40:50.961Z,100.00
2022-10-22T17:45:52.575Z,100.00
2022-10-22T17:50:55.761Z,100.00
2022-10-22T17:56:01.966Z,100.00
2022-10-22T18:01:04.737Z,100.00
2022-10-22T18:06:07.796Z,100.00
2022-10-22T18:11:11.778Z,100.00
2022-10-22T18:16:13.377Z,100.00
2022-10-22T18:21:16.284Z,100.00
2022-10-22T18:26:20.349Z,100.00
2022-10-22T18:31:27.007Z,100.00
2022-10-22T18:36:28.814Z,100.00
2022-10-22T18:41:31.887Z,100.00
2022-10-22T18:46:35.134Z,100.00
2022-10-22T18:51:36.765Z,100.00
2022-10-22T18:56:40.623Z,100.00
2022-10-22T19:01:42.208Z,100.00
2022-10-22T19:06:45.745Z,100.00
2022-10-22T19:11:47.762Z,100.00
2022-10-22T19:16:49.735Z,100.00
2022-10-22T19:21:51.428Z,100.00
2022-10-22T19:26:53.511Z,100.00
2022-10-22T19:31:55.287Z,100.00
2022-10-22T19:36:56.916Z,100.00
2022-10-22T19:41:58.540Z,100.00
2022-10-22T19:47:00.128Z,100.00
2022-10-22T19:52:02.763Z,100.00
2022-10-22T19:57:04.380Z,100.00
2022-10-22T20:02:06.375Z,100.00
2022-10-22T20:07:08.129Z,100.00
2022-10-22T20:12:09.705Z,100.00
2022-10-22T20:17:11.415Z,100.00
2022-10-22T20:22:16.238Z,100.00
2022-10-22T20:27:20.349Z,100.00
2022-10-22T20:32:24.272Z,99.42
2022-10-22T20:37:25.940Z,97.78
2022-10-22T20:42:27.720Z,99.08
2022-10-22T20:47:39.284Z,99.53
2022-10-22T20:52:51.466Z,100.00
2022-10-22T20:57:53.136Z,100.00
2022-10-22T21:02:54.778Z,100.00
2022-10-22T21:07:58.410Z,100.00
2022-10-22T21:13:00.268Z,100.00
2022-10-22T21:18:01.824Z,100.00
2022-10-22T21:23:03.421Z,100.00
2022-10-22T21:28:05.106Z,100.00
2022-10-22T21:33:06.655Z,100.00
2022-10-22T21:38:08.285Z,100.00
2022-10-22T21:43:09.949Z,100.00
2022-10-22T21:48:13.925Z,100.00
2022-10-22T21:53:15.498Z,100.00
2022-10-22T21:58:17.143Z,100.00
2022-10-22T22:03:18.752Z,100.00
2022-10-22T22:08:20.309Z,100.00
2022-10-22T22:13:24.947Z,100.00
2022-10-22T22:18:26.696Z,100.00
2022-10-22T22:23:28.345Z,100.00
2022-10-22T22:28:30.463Z,100.00
2022-10-22T22:33:32.128Z,100.00
2022-10-22T22:38:33.731Z,100.00
2022-10-22T22:43:36.951Z,100.00
2022-10-22T22:48:38.915Z,100.00
2022-10-22T22:53:40.466Z,100.00
2022-10-22T22:58:42.358Z,100.00
2022-10-22T23:03:46.751Z,100.00
2022-10-22T23:08:50.221Z,100.00
2022-10-22T23:13:54.347Z,100.00
2022-10-22T23:18:56.280Z,100.00
2022-10-22T23:24:00.246Z,100.00
2022-10-22T23:29:07.044Z,100.00
2022-10-22T23:34:10.342Z,100.00
2022-10-22T23:39:14.527Z,100.00
2022-10-22T23:44:16.221Z,100.00
2022-10-22T23:49:18.457Z,100.00
2022-10-22T23:54:20.015Z,100.00
2022-10-22T23:59:21.585Z,100.00
